createdAt,value
2019-02-11T00:00:40.858Z,85.86
2019-02-11T00:03:50.350Z,85.99
2019-02-11T00:07:01.183Z,86.39
2019-02-11T00:10:09.386Z,86.42
2019-02-11T00:13:17.274Z,86.40
2019-02-11T00:16:23.611Z,86.68
2019-02-11T00:19:31.203Z,86.02
2019-02-11T00:22:37.721Z,85.97
2019-02-11T00:25:45.666Z,85.91
2019-02-11T00:28:52.234Z,85.78
2019-02-11T00:31:58.613Z,85.84
2019-02-11T00:35:05.113Z,85.51
2019-02-11T00:38:11.560Z,85.66
2019-02-11T00:41:18.072Z,86.21
2019-02-11T00:44:24.409Z,86.55
2019-02-11T00:47:30.661Z,86.43
2019-02-11T00:50:37.504Z,87.01
2019-02-11T00:53:44.526Z,86.33
2019-02-11T00:56:50.838Z,87.21
2019-02-11T00:59:58.575Z,87.16
2019-02-11T01:03:06.345Z,86.41
2019-02-11T01:06:12.608Z,86.16
2019-02-11T01:09:20.122Z,85.98
2019-02-11T01:12:26.433Z,86.01
2019-02-11T01:15:34.644Z,85.87
2019-02-11T01:18:41.015Z,85.88
2019-02-11T01:21:47.303Z,86.36
2019-02-11T01:24:53.679Z,85.69
2019-02-11T01:28:00.103Z,85.81
2019-02-11T01:31:06.443Z,85.80
2019-02-11T01:34:13.073Z,85.98
2019-02-11T01:37:19.406Z,85.98
2019-02-11T01:40:25.736Z,86.88
2019-02-11T01:43:36.140Z,87.97
2019-02-11T01:46:40.414Z,86.78
2019-02-11T01:49:46.746Z,86.18
2019-02-11T01:52:53.028Z,86.50
2019-02-11T01:55:59.677Z,86.37
2019-02-11T01:59:06.121Z,86.08
2019-02-11T02:02:12.467Z,85.96
2019-02-11T02:05:18.944Z,86.39
2019-02-11T02:08:25.274Z,86.75
2019-02-11T02:11:31.677Z,86.69
2019-02-11T02:14:39.498Z,86.87
2019-02-11T02:17:47.545Z,87.05
2019-02-11T02:20:54.983Z,86.55
2019-02-11T02:24:01.440Z,86.99
2019-02-11T02:27:07.876Z,87.70
2019-02-11T02:30:14.329Z,87.07
2019-02-11T02:33:20.745Z,86.52
2019-02-11T02:36:28.872Z,86.53
2019-02-11T02:39:36.197Z,86.96
2019-02-11T02:42:42.678Z,86.71
2019-02-11T02:45:49.269Z,86.80
2019-02-11T02:48:55.696Z,87.10
2019-02-11T02:52:02.036Z,86.99
2019-02-11T02:55:08.525Z,86.56
2019-02-11T02:58:14.773Z,87.16
2019-02-11T03:01:21.229Z,86.69
2019-02-11T03:04:28.054Z,86.42
2019-02-11T03:07:35.209Z,86.40
2019-02-11T03:10:42.344Z,86.75
2019-02-11T03:13:50.381Z,86.82
2019-02-11T03:16:56.714Z,87.13
2019-02-11T03:20:03.571Z,87.47
2019-02-11T03:23:10.251Z,87.76
2019-02-11T03:26:16.520Z,87.15
2019-02-11T03:29:26.722Z,86.91
2019-02-11T03:32:37.890Z,86.69
2019-02-11T03:35:44.051Z,86.38
2019-02-11T03:38:50.468Z,86.75
2019-02-11T03:41:57.176Z,86.70
2019-02-11T03:45:04.000Z,86.59
2019-02-11T03:48:11.099Z,86.66
2019-02-11T03:51:17.957Z,86.52
2019-02-11T03:54:24.271Z,86.50
2019-02-11T03:57:30.961Z,86.96
2019-02-11T04:00:38.151Z,86.75
2019-02-11T04:03:44.476Z,87.12
2019-02-11T04:06:50.862Z,86.68
2019-02-11T04:09:57.161Z,86.59
2019-02-11T04:13:04.003Z,86.88
2019-02-11T04:16:11.011Z,86.71
2019-02-11T04:19:17.383Z,86.39
2019-02-11T04:22:24.146Z,86.66
2019-02-11T04:25:30.648Z,86.81
2019-02-11T04:28:37.085Z,86.82
2019-02-11T04:31:43.560Z,86.77
2019-02-11T04:34:49.960Z,86.58
2019-02-11T04:37:57.681Z,86.37
2019-02-11T04:41:04.022Z,86.35
2019-02-11T04:44:10.349Z,86.65
2019-02-11T04:47:16.674Z,86.94
2019-02-11T04:50:22.927Z,86.12
2019-02-11T04:53:29.583Z,86.04
2019-02-11T04:56:36.257Z,86.23
2019-02-11T04:59:42.511Z,86.44
2019-02-11T05:02:50.414Z,86.42
2019-02-11T05:05:56.687Z,86.09
2019-02-11T05:09:05.047Z,86.63
2019-02-11T05:12:11.437Z,86.63
2019-02-11T05:15:19.527Z,86.22
2019-02-11T05:18:26.265Z,87.31
2019-02-11T05:21:34.548Z,87.31
2019-02-11T05:24:41.190Z,86.70
2019-02-11T05:27:47.966Z,86.16
2019-02-11T05:30:54.714Z,86.05
2019-02-11T05:34:03.185Z,85.88
2019-02-11T05:37:09.520Z,86.40
2019-02-11T05:40:15.996Z,86.54
2019-02-11T05:43:22.377Z,86.01
2019-02-11T05:46:28.702Z,85.91
2019-02-11T05:49:36.476Z,86.26
2019-02-11T05:52:42.978Z,86.15
2019-02-11T05:55:49.392Z,85.93
2019-02-11T05:58:56.073Z,86.15
2019-02-11T06:02:02.332Z,85.90
2019-02-11T06:05:09.097Z,86.07
2019-02-11T06:08:15.519Z,85.54
2019-02-11T06:11:21.863Z,85.67
2019-02-11T06:14:42.895Z,85.80
2019-02-11T06:17:50.734Z,85.68
2019-02-11T06:20:57.101Z,85.60
2019-02-11T06:24:05.048Z,86.08
2019-02-11T06:27:12.826Z,86.08
2019-02-11T06:30:19.158Z,85.79
2019-02-11T06:33:25.509Z,86.07
2019-02-11T06:36:35.986Z,86.65
2019-02-11T06:39:42.294Z,85.77
2019-02-11T06:42:51.658Z,85.59
2019-02-11T06:45:58.194Z,85.38
2019-02-11T06:49:04.665Z,85.22
2019-02-11T06:52:11.137Z,85.17
2019-02-11T06:55:18.183Z,84.77
2019-02-11T06:58:25.994Z,84.64
2019-02-11T07:01:35.084Z,85.51
2019-02-11T07:04:41.959Z,84.89
2019-02-11T07:07:48.346Z,85.03
2019-02-11T07:10:56.154Z,84.85
2019-02-11T07:14:02.578Z,85.08
2019-02-11T07:17:08.811Z,85.08
2019-02-11T07:20:15.206Z,85.26
2019-02-11T07:23:21.575Z,85.25
2019-02-11T07:26:27.953Z,84.76
2019-02-11T07:29:34.285Z,84.76
2019-02-11T07:32:40.636Z,84.91
2019-02-11T07:35:48.026Z,84.90
2019-02-11T07:38:54.427Z,85.01
2019-02-11T07:42:18.807Z,84.66
2019-02-11T07:45:49.793Z,84.49
2019-02-11T07:48:56.276Z,84.00
2019-02-11T07:52:02.711Z,84.12
2019-02-11T07:55:10.710Z,83.93
2019-02-11T07:58:17.514Z,83.54
2019-02-11T08:01:24.228Z,83.79
2019-02-11T08:04:30.893Z,83.81
2019-02-11T08:07:40.169Z,83.60
2019-02-11T08:10:46.856Z,84.03
2019-02-11T08:13:54.920Z,84.14
2019-02-11T08:17:02.867Z,83.68
2019-02-11T08:20:11.535Z,83.77
2019-02-11T08:23:20.106Z,83.27
2019-02-11T08:26:26.688Z,82.82
2019-02-11T08:29:40.648Z,82.87
2019-02-11T08:32:47.301Z,82.97
2019-02-11T08:35:53.807Z,83.17
2019-02-11T08:39:02.091Z,83.32
2019-02-11T08:42:13.289Z,83.53
2019-02-11T08:45:19.823Z,83.57
2019-02-11T08:48:26.267Z,83.16
2019-02-11T08:51:34.459Z,83.39
2019-02-11T08:54:45.021Z,83.39
2019-02-11T08:57:52.912Z,82.90
2019-02-11T09:00:59.272Z,82.67
2019-02-11T09:04:05.716Z,83.20
2019-02-11T09:07:11.991Z,83.49
2019-02-11T09:10:18.314Z,83.59
2019-02-11T09:13:24.710Z,83.12
2019-02-11T09:16:32.608Z,83.42
2019-02-11T09:19:39.142Z,83.00
2019-02-11T09:22:45.371Z,83.42
2019-02-11T09:25:51.717Z,83.47
2019-02-11T09:28:58.389Z,82.97
2019-02-11T09:32:04.707Z,83.16
2019-02-11T09:35:11.183Z,82.75
2019-02-11T09:38:18.597Z,82.58
2019-02-11T09:41:25.183Z,82.04
2019-02-11T09:44:31.471Z,81.93
2019-02-11T09:47:38.125Z,81.47
2019-02-11T09:50:47.654Z,81.13
2019-02-11T09:53:54.096Z,81.24
2019-02-11T09:57:00.429Z,81.47
2019-02-11T10:00:07.156Z,81.29
2019-02-11T10:03:13.499Z,81.04
2019-02-11T10:06:20.058Z,81.24
2019-02-11T10:09:27.048Z,80.93
2019-02-11T10:12:33.404Z,80.62
2019-02-11T10:15:41.698Z,81.04
2019-02-11T10:18:48.141Z,81.09
2019-02-11T10:21:54.567Z,81.38
2019-02-11T10:25:01.214Z,81.40
2019-02-11T10:28:11.199Z,81.34
2019-02-11T10:31:18.625Z,81.61
2019-02-11T10:34:24.859Z,81.01
2019-02-11T10:37:31.199Z,81.63
2019-02-11T10:40:38.088Z,80.54
2019-02-11T10:43:44.479Z,81.03
2019-02-11T10:46:51.078Z,80.11
2019-02-11T10:49:57.662Z,79.98
2019-02-11T10:53:04.978Z,79.21
2019-02-11T10:56:11.279Z,79.19
2019-02-11T10:59:18.403Z,78.74
2019-02-11T11:02:25.016Z,77.54
2019-02-11T11:05:31.362Z,77.94
2019-02-11T11:08:38.322Z,77.93
2019-02-11T11:11:44.713Z,77.11
2019-02-11T11:14:51.019Z,76.49
2019-02-11T11:17:57.454Z,75.71
2019-02-11T11:21:03.882Z,76.33
2019-02-11T11:24:10.951Z,74.94
2019-02-11T11:27:18.786Z,75.36
2019-02-11T11:30:25.226Z,74.68
2019-02-11T11:33:31.549Z,74.04
2019-02-11T11:36:38.234Z,73.80
2019-02-11T11:39:44.547Z,73.49
2019-02-11T11:42:50.954Z,73.42
2019-02-11T11:45:57.377Z,73.36
2019-02-11T11:49:04.208Z,72.86
2019-02-11T11:52:10.518Z,72.62
2019-02-11T11:55:17.239Z,72.72
2019-02-11T11:58:26.918Z,72.23
2019-02-11T12:01:35.105Z,70.07
2019-02-11T12:04:41.458Z,70.21
2019-02-11T12:07:47.793Z,69.08
2019-02-11T12:10:54.920Z,68.18
2019-02-11T12:14:03.009Z,68.09
2019-02-11T12:17:09.311Z,68.09
2019-02-11T12:20:15.686Z,69.03
2019-02-11T12:23:23.003Z,68.10
2019-02-11T12:26:29.480Z,66.97
2019-02-11T12:29:35.830Z,68.98
2019-02-11T12:32:42.185Z,66.19
2019-02-11T12:35:48.461Z,66.01
2019-02-11T12:38:54.929Z,66.07
2019-02-11T12:42:01.245Z,65.74
2019-02-11T12:45:12.938Z,65.21
2019-02-11T12:48:19.421Z,65.48
2019-02-11T12:51:26.880Z,65.06
2019-02-11T12:54:33.537Z,62.70
2019-02-11T12:57:39.994Z,62.70
2019-02-11T13:00:46.431Z,63.61
2019-02-11T13:03:53.047Z,62.84
2019-02-11T13:06:59.370Z,64.26
2019-02-11T13:10:06.758Z,62.47
2019-02-11T13:13:13.115Z,62.01
2019-02-11T13:16:19.869Z,61.11
2019-02-11T13:19:27.821Z,60.46
2019-02-11T13:22:35.663Z,58.17
2019-02-11T13:25:42.142Z,60.14
2019-02-11T13:28:48.528Z,60.23
2019-02-11T13:31:54.839Z,58.55
2019-02-11T13:35:01.102Z,58.76
2019-02-11T13:38:07.545Z,59.75
2019-02-11T13:41:13.972Z,60.00
2019-02-11T13:44:20.344Z,61.04
2019-02-11T13:47:26.997Z,58.93
2019-02-11T13:50:33.613Z,59.44
2019-02-11T13:53:43.506Z,60.00
2019-02-11T13:56:48.354Z,62.74
2019-02-11T13:59:54.688Z,64.05
2019-02-11T14:03:01.941Z,62.83
2019-02-11T14:06:08.536Z,64.61
2019-02-11T14:09:14.935Z,63.00
2019-02-11T14:12:21.202Z,63.99
2019-02-11T14:15:27.586Z,63.18
2019-02-11T14:18:39.203Z,63.41
2019-02-11T14:21:45.519Z,63.19
2019-02-11T14:24:51.937Z,64.99
2019-02-11T14:27:58.222Z,64.57
2019-02-11T14:31:04.563Z,63.71
2019-02-11T14:34:11.995Z,63.86
2019-02-11T14:37:18.416Z,65.95
2019-02-11T14:40:25.049Z,64.69
2019-02-11T14:43:31.495Z,65.20
2019-02-11T14:46:38.080Z,64.91
2019-02-11T14:49:44.531Z,64.92
2019-02-11T14:52:52.194Z,65.34
2019-02-11T14:55:58.555Z,65.51
2019-02-11T14:59:04.984Z,65.56
2019-02-11T15:02:11.382Z,65.45
2019-02-11T15:05:19.060Z,66.06
2019-02-11T15:08:25.334Z,66.36
2019-02-11T15:11:31.789Z,65.93
2019-02-11T15:14:38.157Z,66.11
2019-02-11T15:17:44.549Z,66.24
2019-02-11T15:20:51.391Z,67.72
2019-02-11T15:23:57.812Z,66.71
2019-02-11T15:27:04.180Z,67.75
2019-02-11T15:30:12.722Z,67.64
2019-02-11T15:33:19.186Z,67.17
2019-02-11T15:36:25.546Z,66.87
2019-02-11T15:39:32.021Z,66.97
2019-02-11T15:42:38.426Z,66.89
2019-02-11T15:45:44.690Z,66.83
2019-02-11T15:48:52.012Z,68.29
2019-02-11T15:51:58.276Z,67.66
2019-02-11T15:55:05.122Z,68.02
2019-02-11T15:58:11.468Z,68.58
2019-02-11T16:01:18.059Z,68.58
2019-02-11T16:04:29.035Z,69.36
2019-02-11T16:07:35.400Z,67.54
2019-02-11T16:10:41.680Z,67.48
2019-02-11T16:13:48.206Z,68.28
2019-02-11T16:16:54.585Z,68.15
2019-02-11T16:20:00.894Z,67.62
2019-02-11T16:23:07.303Z,68.10
2019-02-11T16:26:13.554Z,69.93
2019-02-11T16:29:19.894Z,69.05
2019-02-11T16:32:26.293Z,68.96
2019-02-11T16:35:32.555Z,68.73
2019-02-11T16:38:38.974Z,68.29
2019-02-11T16:41:45.298Z,69.70
2019-02-11T16:44:51.737Z,70.17
2019-02-11T16:47:58.056Z,69.41
2019-02-11T16:51:04.435Z,69.36
2019-02-11T16:54:11.551Z,68.97
2019-02-11T16:57:19.100Z,69.41
2019-02-11T17:01:33.701Z,70.89
2019-02-11T17:04:27.781Z,69.45
2019-02-11T17:07:41.654Z,69.39
2019-02-11T17:10:42.191Z,69.66
2019-02-11T17:13:56.695Z,69.52
2019-02-11T17:17:04.642Z,69.88
2019-02-11T17:20:11.736Z,69.65
2019-02-11T17:23:18.057Z,69.71
2019-02-11T17:26:24.406Z,69.70
2019-02-11T17:29:30.737Z,70.35
2019-02-11T17:32:37.101Z,69.82
2019-02-11T17:35:43.463Z,70.32
2019-02-11T17:38:49.944Z,70.04
2019-02-11T17:41:56.309Z,70.42
2019-02-11T17:45:02.732Z,70.73
2019-02-11T17:48:10.720Z,70.63
2019-02-11T17:51:18.060Z,70.35
2019-02-11T17:54:24.974Z,70.11
2019-02-11T17:57:31.375Z,72.56
2019-02-11T18:00:43.635Z,71.00
2019-02-11T18:03:52.232Z,70.31
2019-02-11T18:06:58.549Z,70.25
2019-02-11T18:10:05.505Z,70.48
2019-02-11T18:13:11.902Z,69.81
2019-02-11T18:16:18.273Z,70.30
2019-02-11T18:19:26.377Z,70.98
2019-02-11T18:22:32.711Z,70.07
2019-02-11T18:25:42.072Z,71.74
2019-02-11T18:28:52.144Z,70.02
2019-02-11T18:32:09.766Z,70.79
2019-02-11T18:39:05.080Z,70.66
2019-02-11T18:42:14.078Z,70.82
2019-02-11T18:45:20.477Z,72.15
2019-02-11T18:48:27.105Z,71.09
2019-02-11T18:51:33.544Z,70.97
2019-02-11T18:54:40.025Z,71.63
2019-02-11T18:57:48.589Z,71.86
2019-02-11T19:00:57.733Z,71.61
2019-02-11T19:04:04.105Z,70.72
2019-02-11T19:07:10.386Z,71.03
2019-02-11T19:10:18.261Z,71.48
2019-02-11T19:13:24.582Z,70.95
2019-02-11T19:16:33.311Z,70.62
2019-02-11T19:19:43.715Z,70.84
2019-02-11T19:22:51.733Z,71.13
2019-02-11T19:25:59.464Z,71.77
2019-02-11T19:29:08.401Z,71.26
2019-02-11T19:32:15.021Z,70.94
2019-02-11T19:35:22.016Z,71.17
2019-02-11T19:39:09.957Z,70.86
2019-02-11T19:42:16.419Z,70.92
2019-02-11T19:45:22.848Z,71.17
2019-02-11T19:48:29.114Z,71.99
2019-02-11T19:51:35.570Z,71.49
2019-02-11T19:54:42.036Z,71.46
2019-02-11T19:57:48.519Z,70.63
2019-02-11T20:00:54.901Z,70.66
2019-02-11T20:07:55.094Z,70.10
2019-02-11T20:11:01.458Z,70.97
2019-02-11T20:14:07.852Z,70.78
2019-02-11T20:17:14.225Z,72.24
2019-02-11T20:20:21.984Z,70.79
2019-02-11T20:23:28.626Z,70.79
2019-02-11T20:26:37.819Z,70.89
2019-02-11T20:29:44.163Z,70.24
2019-02-11T20:32:50.564Z,71.23
2019-02-11T20:35:56.941Z,70.21
2019-02-11T20:39:05.378Z,70.58
2019-02-11T20:42:12.270Z,70.41
2019-02-11T20:45:23.990Z,70.75
2019-02-11T20:48:30.332Z,70.92
2019-02-11T20:51:36.736Z,70.77
2019-02-11T20:54:43.239Z,70.28
2019-02-11T20:57:50.204Z,70.55
2019-02-11T21:00:56.545Z,70.51
2019-02-11T21:04:03.040Z,71.23
2019-02-11T21:07:10.352Z,70.99
2019-02-11T21:10:17.102Z,71.37
2019-02-11T21:13:23.445Z,70.46
2019-02-11T21:16:29.818Z,70.66
2019-02-11T21:19:36.318Z,70.24
2019-02-11T21:22:42.964Z,70.65
2019-02-11T21:25:49.232Z,70.40
2019-02-11T21:28:55.608Z,71.10
2019-02-11T21:32:01.871Z,70.20
2019-02-11T21:35:09.170Z,70.69
2019-02-11T21:38:19.786Z,70.00
2019-02-11T21:41:28.094Z,71.16
2019-02-11T21:44:37.860Z,70.36
2019-02-11T21:47:44.627Z,70.32
2019-02-11T21:50:50.929Z,69.76
2019-02-11T21:54:00.398Z,70.12
2019-02-11T21:57:06.723Z,71.63
2019-02-11T22:00:18.494Z,70.58
2019-02-11T22:03:26.248Z,70.83
2019-02-11T22:06:34.319Z,69.61
2019-02-11T22:09:40.680Z,70.04
2019-02-11T22:12:46.987Z,69.36
2019-02-11T22:15:53.336Z,68.72
2019-02-11T22:18:59.694Z,68.71
2019-02-11T22:22:06.036Z,69.03
2019-02-11T22:25:12.415Z,68.87
2019-02-11T22:28:19.777Z,69.92
2019-02-11T22:31:26.204Z,69.44
2019-02-11T22:34:32.480Z,68.44
2019-02-11T22:37:40.135Z,69.08
2019-02-11T22:40:46.547Z,69.11
2019-02-11T22:43:52.896Z,71.40
2019-02-11T22:46:59.177Z,71.40
2019-02-11T22:50:06.074Z,70.11
2019-02-11T22:53:12.323Z,69.96
2019-02-11T22:56:18.661Z,68.25
2019-02-11T22:59:25.021Z,68.55
2019-02-11T23:02:31.366Z,70.19
2019-02-11T23:05:37.728Z,69.59
2019-02-11T23:08:44.107Z,72.37
2019-02-11T23:11:50.460Z,68.69
2019-02-11T23:14:57.062Z,70.59
2019-02-11T23:18:03.471Z,68.57
2019-02-11T23:21:09.750Z,68.65
2019-02-11T23:24:16.132Z,68.09
2019-02-11T23:27:22.481Z,69.91
2019-02-11T23:30:28.786Z,69.59
2019-02-11T23:33:35.055Z,68.94
2019-02-11T23:36:41.397Z,69.11
2019-02-11T23:39:47.860Z,71.15
2019-02-11T23:42:54.180Z,68.57
2019-02-11T23:46:00.434Z,69.27
2019-02-11T23:49:06.857Z,68.50
2019-02-11T23:52:13.214Z,68.96
2019-02-11T23:55:19.545Z,68.67
2019-02-11T23:58:25.951Z,70.24
